Shirak, Armenia

11:15 AM EET on February 06, 2016 (GMT +0200)
Gyumri Shirak Airport | | Change Station
CLOSE
Current Station
Airport
Location: Gyumri Shirak Airport,
Elevation: 5000 ft
Nearby Weather Stations

Elev 5000 ft 40.75 °N, 43.86 °E | Updated 15 minutes ago

Mostly Cloudy
Mostly Cloudy
27 °F
Feels Like 21 °F
N
4
Wind Variable Wind from Variable

Today
High -- | Low -- °F
--% Chance of Precip.
Yesterday
High -- | Low -- °F
Precip. -- in
Pressure 29.95 in
Visibility 3.7 miles
Clouds Scattered Clouds 5000 ft
Mostly Cloudy 10000 ft
Windchill 21 °F
Dew Point 16 °F
Humidity 64%
Rainfall 0.00 in
Snow Depth Not available.
6:10 AM 4:27 PM
Waning Crescent, 6% visible
METAR UDSG 060900Z VRB02MPS 6000 SCT050 BKN100 M03/M09 Q1014 R02/CLRD70 NOSIG
Pressure 29.95 in
Visibility 3.7 miles
Clouds Scattered Clouds 5000 ft
Mostly Cloudy 10000 ft
Windchill 21 °F
Dew Point 16 °F
Humidity 64%
Rainfall 0.00 in
Snow Depth Not available.
6:10 AM 4:27 PM
Waning Crescent, 6% visible
METAR UDSG 060900Z VRB02MPS 6000 SCT050 BKN100 M03/M09 Q1014 R02/CLRD70 NOSIG

10-Day Weather Forecast

Almanac

Astronomy

Feb. 06, 2016 Rise Set
Actual Time
Civil Twilight
Nautical Twilight
Astronomical Twilight
Moon
Length of Visible Light
Length of Day
Tomorrow will be .
, % of the Moon is Illuminated

Today's Extremes

Country Highs Country Lows

Community

WunderPhotos

Upload Photos

1,890,933 photos uploaded!

WunderBlog® & News

Nearby

Air Quality

  Air Quality AQ Index Pollutant
Not available.

Snow Depth

Station Depth Elevation

Earthquake Activity

City Distance Mag. Time & Date
Minimum magnitude displayed is 2.5.

Coastal Water Temperatures

Place Temperature

Stations

Nearby Weather Stations

Station Location Temp. Windchill Dew Point Humidity Wind Precip. Elev Updated Type